Trinity, Alabama
Current Conditions -  °F | °C
As of 3:53 PM on Thursday 23 Oct 2014 (Local Time) from KDCU Reporting Station
Clear Clear  
Wind Chill: 19°   Ceiling: Unl
Heat Index: 19°   Visibility: 10mi
Dew Point:   Wind: 5mph
Humidity: 47%   Direction: 270°W
Pressure: 30.08"   Gusts: NA
Location:  34.61°N, 87.09°W
Report Text: KDCU 232053Z AUTO 27004KT 10SM CLR 19/07 A3008 RMK AO2 SLP185 T01890072 56020
Loading
Personal Weather Stations






























Interactive Weather Map
Tropical Storm Tracking
New forecast layout! Learn more

10-Day Weather Forecast

Advertisements
Track Severe Weather on mobile